createdAt,value
2018-07-14T00:02:06.141Z,99.10
2018-07-14T00:04:37.022Z,99.50
2018-07-14T00:09:37.633Z,99.10
2018-07-14T00:12:08.214Z,99.70
2018-07-14T00:14:38.937Z,99.70
2018-07-14T00:17:09.423Z,99.70
2018-07-14T00:19:40.502Z,99.90
2018-07-14T00:24:41.243Z,99.90
2018-07-14T00:27:12.008Z,99.90
2018-07-14T00:29:42.666Z,99.90
2018-07-14T00:32:13.283Z,99.90
2018-07-14T00:34:43.987Z,99.90
2018-07-14T00:37:15.059Z,99.90
2018-07-14T00:39:45.608Z,99.90
2018-07-14T00:42:16.289Z,99.90
2018-07-14T00:44:47.198Z,99.90
2018-07-14T00:47:17.757Z,99.90
2018-07-14T00:49:48.236Z,99.90
2018-07-14T00:52:18.730Z,99.90
2018-07-14T00:54:52.250Z,99.90
2018-07-14T00:57:22.855Z,99.90
2018-07-14T00:59:53.492Z,99.90
2018-07-14T01:02:23.917Z,99.90
2018-07-14T01:04:54.738Z,99.90
2018-07-14T01:07:25.464Z,99.90
2018-07-14T01:09:56.001Z,99.90
2018-07-14T01:12:27.128Z,99.90
2018-07-14T01:14:57.664Z,99.90
2018-07-14T01:19:58.812Z,99.90
2018-07-14T01:22:33.797Z,99.90
2018-07-14T01:25:05.122Z,99.90
2018-07-14T01:27:35.934Z,99.90
2018-07-14T01:30:06.592Z,99.90
2018-07-14T01:32:37.286Z,99.90
2018-07-14T01:35:08.553Z,99.90
2018-07-14T01:40:09.419Z,99.90
2018-07-14T01:42:40.169Z,99.90
2018-07-14T01:45:10.648Z,99.90
2018-07-14T01:47:41.194Z,99.90
2018-07-14T01:50:11.964Z,99.90
2018-07-14T01:52:42.592Z,99.90
2018-07-14T01:55:13.270Z,99.90
2018-07-14T01:57:43.858Z,99.90
2018-07-14T02:00:14.386Z,99.90
2018-07-14T02:02:45.006Z,99.90
2018-07-14T02:05:15.811Z,99.90
2018-07-14T02:07:46.359Z,99.90
2018-07-14T02:12:47.124Z,99.90
2018-07-14T02:15:17.764Z,99.90
2018-07-14T02:17:48.382Z,99.90
2018-07-14T02:20:19.506Z,99.90
2018-07-14T02:22:50.497Z,99.90
2018-07-14T02:25:21.583Z,99.90
2018-07-14T02:27:52.990Z,99.90
2018-07-14T02:30:23.599Z,99.90
2018-07-14T02:32:54.123Z,99.90
2018-07-14T02:35:24.853Z,99.90
2018-07-14T02:37:56.116Z,99.90
2018-07-14T02:40:26.756Z,99.90
2018-07-14T02:42:57.571Z,99.90
2018-07-14T02:45:28.416Z,99.90
2018-07-14T02:47:58.892Z,99.90
2018-07-14T02:50:29.409Z,99.90
2018-07-14T02:52:59.897Z,99.90
2018-07-14T02:58:01.051Z,99.90
2018-07-14T03:00:31.524Z,99.90
2018-07-14T03:03:02.491Z,99.90
2018-07-14T03:05:33.125Z,99.90
2018-07-14T03:08:03.980Z,99.90
2018-07-14T03:10:34.821Z,99.90
2018-07-14T03:13:05.852Z,99.90
2018-07-14T03:18:07.133Z,99.90
2018-07-14T03:20:37.642Z,99.90
2018-07-14T03:25:38.620Z,99.90
2018-07-14T03:28:09.211Z,99.90
2018-07-14T03:30:39.872Z,99.90
2018-07-14T03:33:10.445Z,99.90
2018-07-14T03:35:41.145Z,99.90
2018-07-14T03:40:41.800Z,99.90
2018-07-14T03:43:12.383Z,99.90
2018-07-14T03:45:43.143Z,99.90
2018-07-14T03:53:13.744Z,99.90
2018-07-14T03:55:44.345Z,99.90
2018-07-14T03:58:17.815Z,99.90
2018-07-14T04:00:48.575Z,99.90
2018-07-14T04:03:19.758Z,99.90
2018-07-14T04:05:50.341Z,99.90
2018-07-14T04:10:51.557Z,99.90
2018-07-14T04:13:22.347Z,99.90
2018-07-14T04:15:53.094Z,99.90
2018-07-14T04:18:24.049Z,99.90
2018-07-14T04:20:54.478Z,99.90
2018-07-14T04:23:25.744Z,99.90
2018-07-14T04:25:56.345Z,99.90
2018-07-14T04:28:26.855Z,99.90
2018-07-14T04:30:57.459Z,99.90
2018-07-14T04:33:28.250Z,99.90
2018-07-14T04:35:58.704Z,99.90
2018-07-14T04:38:29.441Z,99.90
2018-07-14T04:41:00.117Z,99.90
2018-07-14T04:46:01.069Z,99.90
2018-07-14T04:48:32.450Z,99.90
2018-07-14T04:51:03.219Z,99.90
2018-07-14T04:53:34.285Z,99.90
2018-07-14T04:56:05.225Z,99.90
2018-07-14T04:58:35.894Z,99.90
2018-07-14T05:01:06.698Z,99.90
2018-07-14T05:03:37.140Z,99.90
2018-07-14T05:06:07.846Z,99.90
2018-07-14T05:08:38.501Z,99.90
2018-07-14T05:11:09.211Z,99.90
2018-07-14T05:13:40.821Z,99.90
2018-07-14T05:16:11.328Z,99.50
2018-07-14T05:18:41.908Z,99.40
2018-07-14T05:21:12.593Z,98.80
2018-07-14T05:23:43.068Z,98.50
2018-07-14T05:26:13.943Z,98.20
2018-07-14T05:28:44.531Z,98.10
2018-07-14T05:31:15.078Z,97.20
2018-07-14T05:33:45.628Z,96.90
2018-07-14T05:36:16.289Z,96.60
2018-07-14T05:38:46.998Z,96.70
2018-07-14T05:41:17.628Z,96.70
2018-07-14T05:43:48.467Z,95.80
2018-07-14T05:46:19.124Z,95.60
2018-07-14T05:48:49.744Z,95.70
2018-07-14T05:51:20.364Z,95.50
2018-07-14T05:53:50.860Z,94.50
2018-07-14T05:56:21.932Z,93.60
2018-07-14T05:58:52.437Z,92.60
2018-07-14T06:01:23.529Z,90.30
2018-07-14T06:03:54.237Z,90.60
2018-07-14T06:08:54.976Z,86.70
2018-07-14T06:11:25.676Z,86.30
2018-07-14T06:13:56.527Z,85.40
2018-07-14T06:16:27.012Z,83.10
2018-07-14T06:18:57.522Z,85.10
2018-07-14T06:21:28.615Z,83.80
2018-07-14T06:23:59.976Z,85.10
2018-07-14T06:26:30.710Z,83.00
2018-07-14T06:29:01.372Z,83.70
2018-07-14T06:34:02.978Z,79.70
2018-07-14T06:39:04.851Z,72.00
2018-07-14T06:41:35.651Z,67.40
2018-07-14T06:44:06.251Z,59.40
2018-07-14T06:46:37.026Z,53.40
2018-07-14T06:49:07.592Z,48.00
2018-07-14T06:51:38.194Z,44.10
2018-07-14T06:54:08.943Z,40.40
2018-07-14T06:56:39.562Z,37.40
2018-07-14T06:59:10.217Z,37.00
2018-07-14T07:01:40.971Z,37.30
2018-07-14T07:04:11.699Z,34.70
2018-07-14T07:06:42.273Z,35.50
2018-07-14T07:09:13.135Z,34.60
2018-07-14T07:11:44.165Z,32.90
2018-07-14T07:14:15.033Z,32.80
2018-07-14T07:16:45.670Z,32.80
2018-07-14T07:19:16.231Z,34.70
2018-07-14T07:21:46.937Z,31.40
2018-07-14T07:24:18.574Z,31.80
2018-07-14T07:29:19.625Z,31.30
2018-07-14T07:31:50.968Z,29.20
2018-07-14T07:34:22.443Z,28.60
2018-07-14T07:36:53.167Z,29.20
2018-07-14T07:39:23.890Z,30.20
2018-07-14T07:41:54.625Z,27.80
2018-07-14T07:44:25.111Z,26.80
2018-07-14T07:46:55.840Z,28.00
2018-07-14T07:49:27.445Z,27.00
2018-07-14T07:51:58.099Z,27.10
2018-07-14T07:54:28.823Z,27.30
2018-07-14T07:56:59.398Z,27.00
2018-07-14T07:59:30.099Z,26.80
2018-07-14T08:02:00.555Z,26.40
2018-07-14T08:04:32.554Z,27.30
2018-07-14T08:07:03.037Z,26.50
2018-07-14T08:09:33.469Z,27.40
2018-07-14T08:12:04.066Z,26.00
2018-07-14T08:14:34.553Z,26.20
2018-07-14T08:17:05.548Z,26.10
2018-07-14T08:19:36.167Z,25.70
2018-07-14T08:22:07.427Z,24.90
2018-07-14T08:24:38.134Z,26.10
2018-07-14T08:27:08.738Z,26.40
2018-07-14T08:32:09.716Z,24.50
2018-07-14T08:34:40.167Z,24.80
2018-07-14T08:37:10.882Z,24.10
2018-07-14T08:39:42.561Z,25.30
2018-07-14T08:42:13.257Z,26.10
2018-07-14T08:44:43.829Z,25.20
2018-07-14T08:47:14.552Z,25.40
2018-07-14T08:49:45.951Z,24.10
2018-07-14T08:52:17.080Z,26.90
2018-07-14T08:54:47.718Z,23.90
2018-07-14T08:57:18.593Z,24.80
2018-07-14T08:59:49.242Z,24.60
2018-07-14T09:02:20.664Z,25.20
2018-07-14T09:04:51.420Z,26.20
2018-07-14T09:07:22.107Z,24.60
2018-07-14T09:09:52.781Z,24.30
2018-07-14T09:12:24.253Z,23.90
2018-07-14T09:14:54.761Z,25.10
2018-07-14T09:17:25.423Z,24.90
2018-07-14T09:19:56.059Z,23.90
2018-07-14T09:22:26.817Z,25.40
2018-07-14T09:27:27.837Z,24.10
2018-07-14T09:29:58.454Z,25.20
2018-07-14T09:32:29.048Z,25.20
2018-07-14T09:34:59.616Z,25.50
2018-07-14T09:37:30.083Z,23.90
2018-07-14T09:40:00.749Z,24.60
2018-07-14T09:42:31.533Z,24.20
2018-07-14T09:45:05.153Z,23.00
2018-07-14T09:47:35.982Z,24.60
2018-07-14T09:50:06.565Z,24.90
2018-07-14T09:52:37.101Z,23.70
2018-07-14T09:55:08.362Z,24.40
2018-07-14T09:57:39.005Z,24.00
2018-07-14T10:00:14.736Z,24.90
2018-07-14T10:02:45.288Z,23.50
2018-07-14T10:05:15.885Z,23.50
2018-07-14T10:07:46.435Z,23.70
2018-07-14T10:10:17.192Z,24.10
2018-07-14T10:12:47.845Z,24.10
2018-07-14T10:15:18.482Z,24.70
2018-07-14T10:17:49.268Z,25.90
2018-07-14T10:20:20.368Z,26.50
2018-07-14T10:22:51.195Z,28.60
2018-07-14T10:25:22.072Z,28.10
2018-07-14T10:27:52.405Z,29.40
2018-07-14T10:30:22.920Z,29.70
2018-07-14T10:32:53.407Z,30.00
2018-07-14T10:35:23.993Z,31.80
2018-07-14T10:37:54.685Z,32.00
2018-07-14T10:40:25.364Z,32.50
2018-07-14T10:42:56.086Z,35.70
2018-07-14T10:45:26.954Z,33.40
2018-07-14T10:47:57.536Z,32.20
2018-07-14T10:50:28.223Z,31.50
2018-07-14T10:52:58.952Z,32.20
2018-07-14T10:55:29.531Z,31.20
2018-07-14T10:58:00.168Z,28.80
2018-07-14T11:00:30.783Z,29.30
2018-07-14T11:05:32.032Z,28.80
2018-07-14T11:08:02.673Z,28.20
2018-07-14T11:10:33.332Z,30.10
2018-07-14T11:15:34.116Z,28.20
2018-07-14T11:18:05.007Z,27.70
2018-07-14T11:20:35.548Z,29.50
2018-07-14T11:23:06.468Z,30.00
2018-07-14T11:25:37.120Z,32.00
2018-07-14T11:28:07.853Z,30.60
2018-07-14T11:30:38.474Z,31.60
2018-07-14T11:33:09.026Z,31.90
2018-07-14T11:35:39.716Z,31.60
2018-07-14T11:38:10.613Z,31.70
2018-07-14T11:40:41.230Z,33.10
2018-07-14T11:43:11.986Z,32.80
2018-07-14T11:45:42.652Z,33.40
2018-07-14T11:48:13.201Z,32.40
2018-07-14T11:50:43.812Z,33.30
2018-07-14T11:53:14.647Z,34.70
2018-07-14T11:55:45.354Z,35.20
2018-07-14T11:58:16.582Z,35.20
2018-07-14T12:00:47.100Z,35.30
2018-07-14T12:03:17.883Z,37.00
2018-07-14T12:05:48.543Z,36.60
2018-07-14T12:08:19.080Z,37.80
2018-07-14T12:10:49.584Z,38.20
2018-07-14T12:13:20.209Z,35.90
2018-07-14T12:15:50.864Z,35.90
2018-07-14T12:18:21.551Z,34.70
2018-07-14T12:20:52.249Z,34.20
2018-07-14T12:23:22.845Z,34.00
2018-07-14T12:25:53.575Z,33.70
2018-07-14T12:28:24.263Z,33.50
2018-07-14T12:30:54.999Z,33.00
2018-07-14T12:33:25.766Z,35.30
2018-07-14T12:35:56.400Z,33.60
2018-07-14T12:38:26.984Z,33.40
2018-07-14T12:40:58.088Z,32.40
2018-07-14T12:43:28.734Z,32.70
2018-07-14T12:45:59.227Z,32.80
2018-07-14T12:48:29.963Z,33.30
2018-07-14T12:51:00.790Z,34.70
2018-07-14T12:53:31.344Z,34.40
2018-07-14T12:56:02.049Z,33.80
2018-07-14T12:58:32.723Z,34.40
2018-07-14T13:01:03.286Z,34.60
2018-07-14T13:03:34.009Z,36.80
2018-07-14T13:08:35.029Z,35.60
2018-07-14T13:11:05.971Z,34.60
2018-07-14T13:13:36.654Z,35.70
2018-07-14T13:16:07.906Z,34.30
2018-07-14T13:18:39.350Z,35.40
2018-07-14T13:21:10.100Z,35.20
2018-07-14T13:23:40.715Z,34.30
2018-07-14T13:26:11.317Z,34.10
2018-07-14T13:28:42.312Z,34.70
2018-07-14T13:31:13.026Z,34.20
2018-07-14T13:33:43.601Z,34.40
2018-07-14T13:36:14.358Z,34.60
2018-07-14T13:38:51.557Z,36.50
2018-07-14T13:41:15.920Z,36.60
2018-07-14T13:43:46.554Z,35.30
2018-07-14T13:46:17.398Z,34.50
2018-07-14T13:48:48.117Z,35.40
2018-07-14T13:51:18.700Z,37.10
2018-07-14T13:53:49.403Z,35.30
2018-07-14T13:56:20.625Z,34.20
2018-07-14T13:58:51.173Z,34.00
2018-07-14T14:01:22.089Z,34.80
2018-07-14T14:03:53.070Z,33.30
2018-07-14T14:06:23.843Z,34.10
2018-07-14T14:08:54.451Z,33.80
2018-07-14T14:11:25.177Z,33.30
2018-07-14T14:13:55.705Z,33.10
2018-07-14T14:16:26.355Z,33.50
2018-07-14T14:18:57.060Z,34.30
2018-07-14T14:21:27.761Z,34.00
2018-07-14T14:23:58.402Z,34.70
2018-07-14T14:26:29.261Z,34.80
2018-07-14T14:28:59.952Z,35.10
2018-07-14T14:31:30.428Z,36.30
2018-07-14T14:34:01.160Z,36.50
2018-07-14T14:36:32.013Z,36.00
2018-07-14T14:39:02.637Z,35.90
2018-07-14T14:41:33.468Z,35.40
2018-07-14T14:44:04.257Z,34.80
2018-07-14T14:46:34.826Z,36.20
2018-07-14T14:51:35.690Z,37.10
2018-07-14T14:54:06.373Z,37.30
2018-07-14T14:56:37.289Z,36.30
2018-07-14T14:59:07.999Z,36.90
2018-07-14T15:01:38.522Z,37.30
2018-07-14T15:04:09.292Z,36.60
2018-07-14T15:06:39.937Z,39.50
2018-07-14T15:09:10.539Z,39.00
2018-07-14T15:11:41.140Z,37.30
2018-07-14T15:14:11.929Z,35.50
2018-07-14T15:16:42.502Z,34.80
2018-07-14T15:19:13.010Z,36.40
2018-07-14T15:21:43.731Z,36.20
2018-07-14T15:24:14.272Z,36.90
2018-07-14T15:26:44.957Z,36.30
2018-07-14T15:29:15.798Z,37.10
2018-07-14T15:31:46.906Z,37.10
2018-07-14T15:34:17.953Z,37.00
2018-07-14T15:36:48.838Z,37.20
2018-07-14T15:39:19.424Z,35.70
2018-07-14T15:41:49.910Z,38.20
2018-07-14T15:44:20.560Z,39.80
2018-07-14T15:46:51.101Z,38.70
2018-07-14T15:49:21.768Z,37.40
2018-07-14T15:51:53.209Z,38.50
2018-07-14T15:54:23.793Z,40.70
2018-07-14T15:56:54.450Z,38.70
2018-07-14T15:59:25.108Z,38.80
2018-07-14T16:01:55.724Z,40.60
2018-07-14T16:04:26.591Z,43.50
2018-07-14T16:06:57.274Z,44.10
2018-07-14T16:09:28.052Z,45.80
2018-07-14T16:11:58.540Z,45.50
2018-07-14T16:14:29.160Z,46.00
2018-07-14T16:16:59.753Z,47.30
2018-07-14T16:19:30.301Z,48.10
2018-07-14T16:22:00.900Z,46.80
2018-07-14T16:24:31.524Z,47.00
2018-07-14T16:27:02.164Z,44.90
2018-07-14T16:29:32.714Z,46.70
2018-07-14T16:32:03.234Z,46.90
2018-07-14T16:34:33.794Z,45.80
2018-07-14T16:37:04.547Z,46.50
2018-07-14T16:39:35.168Z,46.40
2018-07-14T16:42:06.141Z,41.60
2018-07-14T16:44:36.816Z,42.00
2018-07-14T16:47:07.381Z,42.80
2018-07-14T16:49:38.087Z,41.00
2018-07-14T16:52:08.953Z,39.50
2018-07-14T16:54:39.674Z,40.80
2018-07-14T16:57:10.406Z,45.10
2018-07-14T16:59:40.934Z,43.10
2018-07-14T17:02:11.621Z,46.00
2018-07-14T17:04:42.202Z,41.80
2018-07-14T17:07:13.021Z,45.00
2018-07-14T17:09:43.645Z,47.20
2018-07-14T17:12:14.262Z,49.80
2018-07-14T17:14:44.919Z,47.40
2018-07-14T17:17:15.777Z,51.20
2018-07-14T17:19:46.547Z,50.70
2018-07-14T17:22:17.045Z,50.90
2018-07-14T17:27:18.410Z,53.40
2018-07-14T17:32:19.527Z,55.10
2018-07-14T17:34:50.055Z,55.20
2018-07-14T17:37:20.653Z,55.50
2018-07-14T17:39:51.368Z,55.30
2018-07-14T17:44:52.354Z,56.90
2018-07-14T17:49:53.220Z,52.30
2018-07-14T17:52:24.066Z,50.30
2018-07-14T17:54:54.710Z,49.80
2018-07-14T17:57:25.218Z,51.30
2018-07-14T17:59:55.889Z,50.80
2018-07-14T18:02:27.193Z,51.40
2018-07-14T18:04:57.712Z,51.70
2018-07-14T18:07:28.418Z,53.40
2018-07-14T18:09:58.940Z,54.80
2018-07-14T18:12:29.692Z,55.60
2018-07-14T18:17:31.165Z,56.30
2018-07-14T18:20:01.736Z,54.40
2018-07-14T18:22:32.550Z,54.20
2018-07-14T18:25:03.267Z,53.30
2018-07-14T18:32:34.549Z,51.40
2018-07-14T18:35:05.320Z,50.40
2018-07-14T18:37:36.129Z,49.60
2018-07-14T18:40:07.168Z,49.00
2018-07-14T18:42:37.724Z,49.10
2018-07-14T18:45:08.306Z,49.20
2018-07-14T18:47:38.833Z,48.70
2018-07-14T18:50:09.613Z,49.20
2018-07-14T18:52:40.168Z,50.10
2018-07-14T18:55:10.685Z,52.00
2018-07-14T18:57:41.277Z,53.80
2018-07-14T19:02:42.187Z,53.60
2018-07-14T19:05:13.049Z,52.40
2018-07-14T19:07:43.920Z,52.40
2018-07-14T19:10:14.454Z,55.20
2018-07-14T19:12:45.516Z,55.70
2018-07-14T19:15:16.295Z,56.00
2018-07-14T19:17:46.964Z,56.20
2018-07-14T19:20:17.655Z,56.50
2018-07-14T19:22:49.193Z,57.00
2018-07-14T19:25:19.840Z,57.60
2018-07-14T19:27:50.388Z,58.90
2018-07-14T19:32:51.175Z,59.40
2018-07-14T19:35:28.266Z,60.00
2018-07-14T19:37:58.913Z,59.50
2018-07-14T19:40:29.620Z,61.00
2018-07-14T19:43:00.222Z,60.90
2018-07-14T19:45:30.943Z,61.50
2018-07-14T19:48:01.419Z,62.20
2018-07-14T19:50:32.001Z,63.00
2018-07-14T19:53:02.670Z,61.90
2018-07-14T19:55:35.666Z,63.00
2018-07-14T19:58:04.237Z,62.70
2018-07-14T20:00:34.957Z,63.60
2018-07-14T20:03:06.003Z,63.10
2018-07-14T20:05:36.962Z,64.30
2018-07-14T20:08:07.669Z,65.40
2018-07-14T20:10:38.273Z,65.30
2018-07-14T20:13:08.981Z,64.00
2018-07-14T20:15:39.707Z,64.20
2018-07-14T20:18:10.282Z,63.90
2018-07-14T20:23:11.087Z,65.50
2018-07-14T20:25:41.567Z,63.30
2018-07-14T20:28:12.309Z,62.50
2018-07-14T20:33:15.312Z,64.30
2018-07-14T20:38:16.602Z,64.30
2018-07-14T20:40:47.391Z,66.50
2018-07-14T20:43:18.170Z,65.00
2018-07-14T20:45:48.799Z,66.00
2018-07-14T20:48:19.919Z,62.90
2018-07-14T20:53:20.905Z,61.80
2018-07-14T20:55:51.596Z,62.00
2018-07-14T20:58:22.508Z,61.80
2018-07-14T21:00:53.250Z,62.70
2018-07-14T21:03:23.876Z,61.70
2018-07-14T21:05:55.062Z,65.00
2018-07-14T21:10:56.024Z,65.00
2018-07-14T21:13:26.659Z,66.70
2018-07-14T21:15:58.592Z,67.00
2018-07-14T21:18:29.369Z,67.00
2018-07-14T21:21:00.112Z,66.60
2018-07-14T21:23:31.052Z,66.90
2018-07-14T21:26:01.954Z,68.90
2018-07-14T21:28:32.596Z,68.40
2018-07-14T21:33:33.749Z,70.10
2018-07-14T21:36:04.893Z,70.20
2018-07-14T21:38:35.571Z,70.50
2018-07-14T21:41:06.384Z,71.10
2018-07-14T21:43:37.207Z,71.20
2018-07-14T21:48:38.862Z,72.60
2018-07-14T21:51:09.630Z,73.20
2018-07-14T21:53:40.291Z,73.00
2018-07-14T21:56:10.856Z,73.30
2018-07-14T21:58:41.538Z,73.20
2018-07-14T22:01:17.398Z,74.60
2018-07-14T22:03:48.105Z,74.30
2018-07-14T22:06:22.598Z,74.50
2018-07-14T22:11:23.752Z,75.30
2018-07-14T22:13:54.808Z,76.10
2018-07-14T22:18:56.187Z,77.00
2018-07-14T22:23:56.961Z,78.10
2018-07-14T22:26:27.560Z,78.60
2018-07-14T22:28:58.339Z,78.80
2018-07-14T22:31:29.712Z,79.20
2018-07-14T22:34:06.729Z,79.90
2018-07-14T22:36:37.822Z,80.20
2018-07-14T22:39:08.981Z,80.70
2018-07-14T22:41:40.181Z,81.10
2018-07-14T22:44:10.781Z,81.50
2018-07-14T22:46:42.048Z,81.70
2018-07-14T22:49:12.648Z,81.90
2018-07-14T22:51:43.501Z,82.10
2018-07-14T22:54:17.137Z,82.30
2018-07-14T22:56:47.964Z,82.40
2018-07-14T22:59:18.457Z,83.00
2018-07-14T23:01:49.030Z,82.70
2018-07-14T23:04:19.520Z,83.00
2018-07-14T23:06:51.097Z,83.10
2018-07-14T23:11:51.972Z,83.20
2018-07-14T23:14:22.737Z,83.30
2018-07-14T23:16:54.325Z,83.40
2018-07-14T23:19:25.073Z,83.50
2018-07-14T23:21:55.814Z,83.70
2018-07-14T23:24:26.408Z,83.70
2018-07-14T23:26:57.056Z,83.60
2018-07-14T23:29:27.718Z,84.00
2018-07-14T23:31:58.608Z,83.60
2018-07-14T23:34:29.141Z,84.30
2018-07-14T23:36:59.768Z,84.60
2018-07-14T23:39:30.443Z,85.00
2018-07-14T23:42:01.283Z,84.60
2018-07-14T23:44:32.047Z,84.40
2018-07-14T23:47:02.640Z,84.50
2018-07-14T23:49:33.376Z,84.80
2018-07-14T23:52:03.957Z,85.90
2018-07-14T23:54:34.499Z,86.10
2018-07-14T23:57:06.878Z,87.20
2018-07-14T23:59:37.529Z,86.20
